< < Back
Terminal Aerodrome Forecast


Current Version              Previous Versions:   1  2  3  4  5  6  7  8  9  

Terminal Aerodrome Forecast

455
FTUS44 KMRX 302320
TAFCHA
TAF
KCHA 302320Z 3100/3124 01004KT P6SM SCT250
     FM311400 03006KT P6SM SCT050 BKN150=



Latest METAR

293
SAUS80 KWBC 310900
MTRCHA
METAR KCHA 310853Z 00000KT 10SM CLR 19/16 A3008 RMK AO2 SLP177 T01890156
56004


USA.gov is the U.S. government's official web portal to all federal, state and local government web resources and services.